Time;durP1;ratioP1;P1;durP2;ratioP2;P2;SDS_P1;SDS_P2;PMS_P1;PMS_P2;Temp;Humidity;BMP_temperature;BMP_pressure;BME280_temperature;BME280_humidity;BME280_pressure;Samples;Min_cycle;Max_cycle;Signal;HPM_P1;HPM_P2
2021/01/26 00:01:30;;;;;;;33.90;17.53;;;;;;;0.64;82.98;99155.45;103374;1105;84672;-70
2021/01/26 00:03:36;;;;;;;38.20;19.10;;;;;;;0.63;83.12;99164.44;103341;1106;78619;-71
2021/01/26 00:05:43;;;;;;;31.83;16.70;;;;;;;0.65;83.06;99157.13;103323;1105;64857;-69
2021/01/26 00:07:48;;;;;;;36.53;20.30;;;;;;;0.63;83.09;99172.41;103323;1105;83561;-70
2021/01/26 00:09:55;;;;;;;32.20;16.87;;;;;;;0.56;83.22;99166.88;103309;1105;72151;-69
2021/01/26 00:12:00;;;;;;;30.60;15.83;;;;;;;0.55;82.98;99173.16;103284;1103;85182;-68
2021/01/26 00:14:08;;;;;;;46.33;23.90;;;;;;;0.50;83.06;99181.61;103263;1105;79645;-68
2021/01/26 00:16:14;;;;;;;52.67;28.80;;;;;;;0.47;82.99;99181.08;103296;1105;64665;-67
2021/01/26 00:18:22;;;;;;;44.37;24.37;;;;;;;0.46;82.96;99177.62;103370;1105;84478;-71
2021/01/26 00:20:29;;;;;;;30.47;17.63;;;;;;;0.50;83.03;99183.43;103299;1105;71099;-69
2021/01/26 00:22:34;;;;;;;29.23;19.10;;;;;;;0.54;83.30;99175.02;103248;1105;85629;-68
2021/01/26 00:24:40;;;;;;;25.23;17.20;;;;;;;0.56;83.10;99185.47;103279;1105;78383;-67
2021/01/26 00:26:47;;;;;;;29.25;17.50;;;;;;;0.59;83.16;99182.51;103253;1105;65331;-67
2021/01/26 00:28:52;;;;;;;40.73;21.60;;;;;;;0.60;83.02;99179.68;103282;1106;82883;-70
2021/01/26 00:30:58;;;;;;;37.10;19.03;;;;;;;0.58;83.21;99183.48;103333;1106;72301;-66
2021/01/26 00:33:08;;;;;;;47.03;22.57;;;;;;;0.56;83.48;99188.97;103304;1106;84912;-69
2021/01/26 00:35:16;;;;;;;38.87;20.97;;;;;;;0.55;83.08;99178.48;103285;1103;78558;-70
2021/01/26 00:37:22;;;;;;;33.30;18.53;;;;;;;0.58;83.41;99188.80;103274;1105;65263;-68
2021/01/26 00:39:28;;;;;;;34.97;19.30;;;;;;;0.56;83.43;99191.63;103304;1105;83571;-67
2021/01/26 00:41:33;;;;;;;43.10;21.63;;;;;;;0.62;83.41;99189.33;103329;1105;71017;-67
2021/01/26 00:43:39;;;;;;;32.63;19.30;;;;;;;0.65;83.32;99189.86;103280;1105;86474;-68
2021/01/26 00:45:45;;;;;;;37.90;21.03;;;;;;;0.63;83.52;99186.53;103258;1105;78240;-69
2021/01/26 00:47:51;;;;;;;43.17;22.73;;;;;;;0.62;83.43;99184.02;103263;1105;64845;-71
2021/01/26 00:49:57;;;;;;;47.53;24.30;;;;;;;0.64;83.49;99182.03;103288;1105;83654;-69
2021/01/26 00:52:03;;;;;;;43.00;23.47;;;;;;;0.58;83.27;99179.01;103224;1106;71974;-70
2021/01/26 00:54:12;;;;;;;40.40;21.60;;;;;;;0.63;83.43;99180.38;103276;1105;85429;-69
2021/01/26 00:56:17;;;;;;;39.47;21.70;;;;;;;0.63;83.41;99175.06;103260;1105;78502;-70
2021/01/26 00:58:23;;;;;;;37.37;21.10;;;;;;;0.69;83.40;99185.89;103318;1105;64773;-68
2021/01/26 01:00:35;;;;;;;44.97;23.57;;;;;;;0.67;83.46;99179.90;103266;1105;83266;-67
2021/01/26 01:02:41;;;;;;;41.13;22.90;;;;;;;0.66;83.50;99174.76;103302;1105;72640;-68
2021/01/26 01:04:48;;;;;;;54.10;26.67;;;;;;;0.65;83.50;99170.42;103279;1105;86232;-68
2021/01/26 01:06:54;;;;;;;50.13;24.17;;;;;;;0.64;83.52;99174.89;103281;1105;78216;-69
2021/01/26 01:08:59;;;;;;;47.15;24.90;;;;;;;0.65;83.53;99173.91;103270;1103;64968;-70
2021/01/26 01:11:05;;;;;;;53.23;25.53;;;;;;;0.64;83.45;99180.20;103301;1106;84026;-68
2021/01/26 01:13:13;;;;;;;45.67;21.97;;;;;;;0.67;83.54;99171.09;103317;1105;70993;-69
2021/01/26 01:15:22;;;;;;;58.07;27.27;;;;;;;0.64;83.38;99168.73;103284;1103;85399;-68
2021/01/26 01:17:28;;;;;;;63.80;30.13;;;;;;;0.64;83.40;99171.40;103284;1105;78856;-69
2021/01/26 01:19:34;;;;;;;44.33;22.57;;;;;;;0.69;83.71;99164.63;103302;1105;64834;-70
2021/01/26 01:21:39;;;;;;;42.93;22.37;;;;;;;0.73;83.62;99162.49;103300;1105;84463;-69
2021/01/26 01:23:48;;;;;;;47.93;23.43;;;;;;;0.74;83.33;99166.83;103292;1105;72231;-68
2021/01/26 01:26:00;;;;;;;41.50;22.50;;;;;;;0.76;83.48;99164.84;103308;1105;85508;-69
2021/01/26 01:28:07;;;;;;;45.47;23.33;;;;;;;0.77;83.52;99174.49;103290;1106;77594;-69
2021/01/26 01:30:17;;;;;;;42.90;22.53;;;;;;;0.77;83.29;99166.52;103306;1105;64783;-70
2021/01/26 01:32:24;;;;;;;43.73;21.70;;;;;;;0.76;83.56;99167.50;103283;1105;83609;-66
2021/01/26 01:34:29;;;;;;;35.13;19.43;;;;;;;0.80;83.50;99166.17;103221;1104;73356;-67
2021/01/26 01:36:35;;;;;;;41.43;22.53;;;;;;;0.79;83.52;99169.84;103263;1105;86459;-66
2021/01/26 01:38:42;;;;;;;50.47;27.33;;;;;;;0.76;83.48;99165.68;103282;1105;79165;-67
2021/01/26 01:40:51;;;;;;;62.57;34.73;;;;;;;0.72;83.43;99169.63;103317;1103;64674;-70
2021/01/26 01:42:57;;;;;;;48.93;28.90;;;;;;;0.73;83.56;99171.31;103330;1105;82382;-70
2021/01/26 01:45:03;;;;;;;43.43;24.00;;;;;;;0.73;83.53;99168.65;103278;1105;73857;-68
2021/01/26 01:47:18;;;;;;;49.10;26.90;;;;;;;0.71;83.80;99172.45;103335;1105;84969;-67
2021/01/26 01:49:30;;;;;;;53.40;28.17;;;;;;;0.69;83.49;99169.13;103174;1105;79285;-67
2021/01/26 01:51:39;;;;;;;69.10;34.20;;;;;;;0.68;83.64;99168.30;103305;1105;64889;-69
2021/01/26 01:53:52;;;;;;;45.37;23.07;;;;;;;0.75;83.67;99166.66;103270;1105;81945;-68
2021/01/26 01:56:03;;;;;;;52.60;26.03;;;;;;;0.73;83.45;99173.97;103315;1105;72796;-68
2021/01/26 01:58:17;;;;;;;54.60;27.33;;;;;;;0.71;83.47;99172.45;103319;1105;84020;-67
2021/01/26 02:00:24;;;;;;;50.78;23.67;;;;;;;0.76;83.52;99173.66;103251;1105;78043;-68
2021/01/26 02:02:31;;;;;;;42.60;22.23;;;;;;;0.75;83.62;99168.48;103301;1105;64941;-68
2021/01/26 02:04:38;;;;;;;41.10;21.15;;;;;;;0.70;83.85;99171.62;103204;1105;84929;-68
2021/01/26 02:06:47;;;;;;;48.97;24.60;;;;;;;0.72;83.73;99174.94;103286;1104;71821;-70
2021/01/26 02:08:59;;;;;;;61.57;28.63;;;;;;;0.70;83.59;99173.44;103265;1106;85517;-71
2021/01/26 02:11:05;;;;;;;44.30;22.40;;;;;;;0.75;83.79;99176.45;103274;1105;78137;-67
2021/01/26 02:13:10;;;;;;;55.53;27.20;;;;;;;0.72;83.81;99169.63;103258;1105;64840;-68
2021/01/26 02:15:17;;;;;;;58.03;29.93;;;;;;;0.76;83.67;99167.50;103229;1105;84620;-68
2021/01/26 02:17:40;;;;;;;58.03;28.27;;;;;;;0.76;83.70;99175.47;103298;1105;72721;-70
2021/01/26 02:20:39;;;;;;;48.33;25.33;;;;;;;0.76;83.50;99175.47;103330;1103;85044;-69
2021/01/26 02:23:34;;;;;;;47.57;24.17;;;;;;;0.74;83.43;99169.48;103299;1105;79284;-67
2021/01/26 02:26:10;;;;;;;47.05;23.38;;;;;;;0.75;83.51;99181.77;103278;1105;64889;-67
2021/01/26 02:28:37;;;;;;;48.87;24.47;;;;;;;0.74;83.76;99177.46;103308;1106;82052;-69
2021/01/26 02:30:59;;;;;;;45.50;22.40;;;;;;;0.70;83.56;99182.25;103288;1105;71941;-69
2021/01/26 02:33:59;;;;;;;46.25;24.45;;;;;;;0.70;83.65;99186.72;103344;1105;85289;-69
2021/01/26 02:36:42;;;;;;;44.83;23.57;;;;;;;0.68;83.64;99186.05;103341;1106;79652;-69
2021/01/26 02:39:26;;;;;;;42.10;22.93;;;;;;;0.69;83.92;99183.23;103338;1106;64834;-68
2021/01/26 02:41:40;;;;;;;55.50;27.70;;;;;;;0.73;83.49;99186.41;103331;1105;83407;-68
2021/01/26 02:44:03;;;;;;;43.10;23.67;;;;;;;0.79;83.47;99191.11;103274;1105;72182;-69
2021/01/26 02:46:18;;;;;;;46.97;25.80;;;;;;;0.79;83.41;99185.80;103306;1105;85512;-69
2021/01/26 02:48:53;;;;;;;48.10;25.75;;;;;;;0.82;83.66;99188.14;103345;1104;78237;-65
2021/01/26 02:51:04;;;;;;;64.03;29.73;;;;;;;0.80;83.58;99190.09;103291;1105;65285;-65
2021/01/26 02:53:17;;;;;;;55.40;28.30;;;;;;;0.78;83.45;99186.77;103244;1105;83283;-66
2021/01/26 02:55:33;;;;;;;52.00;27.22;;;;;;;0.79;83.55;99191.95;103314;1105;72250;-66
2021/01/26 02:57:49;;;;;;;53.50;29.00;;;;;;;0.83;83.70;99192.45;103249;1106;86180;-65
2021/01/26 03:00:01;;;;;;;50.20;28.70;;;;;;;0.76;83.69;99188.76;103295;1105;78416;-66
2021/01/26 03:02:13;;;;;;;44.47;25.37;;;;;;;0.76;83.70;99189.60;103333;1105;64893;-67
2021/01/26 03:04:25;;;;;;;42.50;25.63;;;;;;;0.77;83.66;99193.09;103272;1106;83774;-67
2021/01/26 03:06:34;;;;;;;33.87;20.13;;;;;;;0.82;83.49;99193.45;103341;1105;72836;-67
2021/01/26 03:08:46;;;;;;;36.50;23.75;;;;;;;0.80;83.81;99193.59;103309;1105;84494;-65
2021/01/26 03:11:01;;;;;;;42.20;21.87;;;;;;;0.75;83.44;99195.89;103248;1105;77474;-66
2021/01/26 03:13:12;;;;;;;47.90;24.20;;;;;;;0.72;83.71;99200.68;103277;1105;64854;-69
2021/01/26 03:15:20;;;;;;;45.57;24.43;;;;;;;0.72;83.85;99198.86;103259;1105;82448;-68
2021/01/26 03:17:35;;;;;;;54.47;27.20;;;;;;;0.76;83.57;99207.36;103286;1105;71534;-68
2021/01/26 03:19:46;;;;;;;49.40;24.13;;;;;;;0.78;83.50;99208.03;103265;1105;85431;-71
2021/01/26 03:21:58;;;;;;;50.40;25.37;;;;;;;0.78;83.57;99206.22;103290;1105;78274;-70
2021/01/26 03:24:09;;;;;;;44.60;22.10;;;;;;;0.79;83.39;99207.05;103262;1103;65286;-70
2021/01/26 03:26:20;;;;;;;46.53;25.20;;;;;;;0.81;83.30;99202.41;103289;1105;82402;-70
2021/01/26 03:28:28;;;;;;;39.67;21.30;;;;;;;0.81;83.37;99215.70;103277;1106;72126;-67
2021/01/26 03:30:41;;;;;;;41.00;22.17;;;;;;;0.82;83.64;99206.75;103277;1105;86140;-68
2021/01/26 03:32:50;;;;;;;41.53;22.60;;;;;;;0.82;83.49;99206.75;103264;1105;77753;-70
2021/01/26 03:34:56;;;;;;;44.60;25.80;;;;;;;0.82;83.46;99218.22;103258;1105;64946;-69
2021/01/26 03:37:03;;;;;;;41.93;23.60;;;;;;;0.82;83.48;99207.59;103299;1105;83222;-73
2021/01/26 03:39:10;;;;;;;37.03;20.70;;;;;;;0.78;83.69;99216.01;103267;1105;71093;-75
2021/01/26 03:41:17;;;;;;;35.53;21.13;;;;;;;0.75;83.39;99205.69;103259;1105;85390;-77
2021/01/26 03:43:24;;;;;;;36.20;20.57;;;;;;;0.71;83.70;99214.98;103267;1105;77614;-75
2021/01/26 03:45:30;;;;;;;46.13;24.53;;;;;;;0.68;83.81;99217.95;103269;1105;64905;-76
2021/01/26 03:47:54;;;;;;;40.97;23.30;;;;;;;0.76;83.58;99224.16;103266;1105;83296;-66
2021/01/26 03:50:28;;;;;;;47.85;23.98;;;;;;;0.75;83.72;99218.98;103281;1105;72891;-66
2021/01/26 03:53:01;;;;;;;35.33;20.10;;;;;;;0.76;83.55;99218.84;103297;1105;85130;-75
2021/01/26 03:55:18;;;;;;;41.02;20.90;;;;;;;0.69;83.43;99216.97;103254;1105;79394;-75
2021/01/26 03:57:44;;;;;;;46.60;23.87;;;;;;;0.66;83.50;99217.27;103271;1105;64873;-76
2021/01/26 04:00:10;;;;;;;42.20;21.83;;;;;;;0.64;83.64;99219.23;103300;1106;83486;-76
2021/01/26 04:02:22;;;;;;;49.57;24.80;;;;;;;0.65;83.66;99226.22;103283;1105;71732;-67
2021/01/26 04:04:38;;;;;;;47.87;23.37;;;;;;;0.66;83.55;99222.59;103276;1105;83696;-66
2021/01/26 04:06:49;;;;;;;45.40;23.80;;;;;;;0.67;83.83;99224.23;103296;1105;79129;-66
2021/01/26 04:08:58;;;;;;;41.87;22.73;;;;;;;0.67;83.55;99233.05;103309;1105;64841;-66
2021/01/26 04:11:12;;;;;;;45.23;21.97;;;;;;;0.68;83.50;99233.89;103263;1105;83517;-66
2021/01/26 04:13:22;;;;;;;;;;;;;;;0.65;83.65;99232.38;103303;1105;72433;-75
2021/01/26 04:15:35;;;;;;;34.10;17.93;;;;;;;0.68;83.76;99236.55;103302;1105;84984;-73
2021/01/26 04:17:44;;;;;;;;;;;;;;;0.73;83.69;99237.75;103253;1106;78753;-73
2021/01/26 04:19:58;;;;;;;38.10;20.27;;;;;;;0.78;83.71;99237.27;103309;1105;64751;-75
2021/01/26 04:22:05;;;;;;;49.07;23.87;;;;;;;0.74;83.71;99230.61;103244;1105;83156;-65
2021/01/26 04:24:11;;;;;;;46.43;23.57;;;;;;;0.71;83.60;99231.77;103272;1105;72579;-66
2021/01/26 04:26:19;;;;;;;39.47;20.27;;;;;;;0.71;83.65;99231.77;103250;1105;86538;-66
2021/01/26 04:28:36;;;;;;;43.37;22.50;;;;;;;0.73;83.58;99235.09;103288;1106;78197;-74
2021/01/26 04:30:43;;;;;;;41.30;21.17;;;;;;;0.69;83.61;99233.72;103284;1103;66079;-72
2021/01/26 04:32:59;;;;;;;43.40;23.53;;;;;;;0.74;83.78;99236.77;103227;1105;84440;-69
2021/01/26 04:35:07;;;;;;;54.73;28.50;;;;;;;0.75;83.57;99241.08;103304;1105;72103;-69
2021/01/26 04:37:13;;;;;;;37.60;20.33;;;;;;;0.75;83.34;99238.42;103280;1103;83939;-68
2021/01/26 04:39:19;;;;;;;42.53;23.67;;;;;;;0.68;83.48;99237.38;103237;1105;80110;-69
2021/01/26 04:41:37;;;;;;;40.17;22.20;;;;;;;0.69;83.47;99238.23;103295;1105;64915;-67
2021/01/26 04:44:00;;;;;;;39.87;22.50;;;;;;;0.73;83.41;99234.25;103253;1106;83623;-66
2021/01/26 04:46:16;;;;;;;31.73;18.87;;;;;;;0.73;83.71;99229.78;103273;1105;73232;-66
2021/01/26 04:48:30;;;;;;;28.70;18.37;;;;;;;0.75;83.60;99237.58;103297;1105;84446;-66
2021/01/26 04:50:45;;;;;;;;;;;;;;;0.75;83.43;99229.61;103275;1106;78320;-67
2021/01/26 04:53:10;;;;;;;27.70;16.80;;;;;;;0.68;83.37;99226.76;103235;1105;64917;-68
2021/01/26 04:55:33;;;;;;;31.13;18.13;;;;;;;0.69;83.38;99227.59;103253;1105;83768;-66
2021/01/26 04:58:03;;;;;;;34.23;19.50;;;;;;;0.72;83.34;99229.91;103299;1105;71543;-68
2021/01/26 05:00:24;;;;;;;31.37;17.80;;;;;;;0.73;83.50;99235.09;103261;1105;85341;-67
2021/01/26 05:03:20;;;;;;;35.70;18.80;;;;;;;0.69;83.27;99224.94;103242;1106;79911;-67
2021/01/26 05:05:27;;;;;;;35.27;20.17;;;;;;;0.63;83.41;99244.16;103304;1106;64838;-70
2021/01/26 05:07:41;;;;;;;27.43;16.33;;;;;;;0.62;83.49;99242.47;103244;1105;84041;-67
2021/01/26 05:09:57;;;;;;;31.85;16.57;;;;;;;0.64;83.59;99241.33;103332;1105;71654;-66
2021/01/26 05:12:07;;;;;;;28.30;16.47;;;;;;;0.65;83.47;99234.20;103259;1105;83999;-64
2021/01/26 05:14:18;;;;;;;29.10;16.93;;;;;;;0.66;83.57;99243.84;103287;1106;78213;-64
2021/01/26 05:16:33;;;;;;;26.53;15.63;;;;;;;0.66;83.39;99242.00;103257;1103;64831;-63
2021/01/26 05:18:47;;;;;;;23.97;15.47;;;;;;;0.63;83.32;99239.68;103253;1106;82514;-69
2021/01/26 05:20:59;;;;;;;28.55;17.05;;;;;;;0.63;83.20;99246.81;103261;1106;72098;-70
2021/01/26 05:23:13;;;;;;;25.60;15.70;;;;;;;0.66;83.46;99243.84;103249;1103;84822;-65
2021/01/26 05:25:22;;;;;;;28.10;14.87;;;;;;;0.63;83.41;99244.16;103282;1105;77569;-70
2021/01/26 05:27:32;;;;;;;25.77;15.53;;;;;;;0.64;83.35;99245.80;103308;1105;64870;-67
2021/01/26 05:29:38;;;;;;;27.50;16.17;;;;;;;0.60;83.42;99239.98;103231;1106;84916;-68
2021/01/26 05:31:49;;;;;;;26.67;15.50;;;;;;;0.63;83.47;99244.16;103240;1106;73620;-68
2021/01/26 05:33:59;;;;;;;29.57;18.80;;;;;;;0.62;83.64;99250.45;103261;1105;85534;-68
2021/01/26 05:36:06;;;;;;;27.70;18.00;;;;;;;0.66;83.54;99252.63;103280;1106;79075;-69
2021/01/26 05:38:12;;;;;;;27.40;18.13;;;;;;;0.64;83.35;99257.27;103288;1105;64965;-69
2021/01/26 05:40:25;;;;;;;27.57;18.23;;;;;;;0.61;83.54;99254.92;103276;1105;83794;-69
2021/01/26 05:42:32;;;;;;;28.10;17.73;;;;;;;0.59;83.48;99257.74;103268;1105;71234;-69
2021/01/26 05:44:38;;;;;;;28.23;17.00;;;;;;;0.58;83.40;99256.06;103248;1106;85813;-69
2021/01/26 05:46:47;;;;;;;34.83;19.60;;;;;;;0.56;83.71;99260.70;103252;1105;78351;-69
2021/01/26 05:48:53;;;;;;;41.50;22.93;;;;;;;0.55;83.53;99261.69;103253;1105;64835;-69
2021/01/26 05:51:20;;;;;;;36.50;21.30;;;;;;;0.56;83.31;99265.18;103272;1105;82993;-70
2021/01/26 05:53:30;;;;;;;38.90;22.77;;;;;;;0.56;83.24;99262.52;103291;1105;72236;-69
2021/01/26 05:55:36;;;;;;;30.07;18.23;;;;;;;0.56;83.20;99273.99;103293;1105;84564;-68
2021/01/26 05:57:42;;;;;;;31.00;18.93;;;;;;;0.55;83.41;99269.66;103233;1105;78904;-70
2021/01/26 05:59:48;;;;;;;26.37;16.30;;;;;;;0.55;83.31;99274.97;103286;1106;64859;-69
2021/01/26 06:01:54;;;;;;;25.97;16.50;;;;;;;0.52;83.37;99272.61;103244;1105;84110;-67
2021/01/26 06:04:11;;;;;;;31.77;19.43;;;;;;;0.50;83.41;99279.07;103281;1105;72305;-67
2021/01/26 06:06:20;;;;;;;37.53;22.23;;;;;;;0.55;83.32;99284.75;103274;1105;85239;-68
2021/01/26 06:08:26;;;;;;;35.47;20.60;;;;;;;0.56;83.04;99284.62;103309;1104;77348;-68
2021/01/26 06:10:34;;;;;;;31.60;19.00;;;;;;;0.56;83.18;99281.96;103299;1106;64888;-68
2021/01/26 06:12:56;;;;;;;29.77;18.37;;;;;;;0.56;83.09;99281.12;103283;1106;83313;-70
2021/01/26 06:15:08;;;;;;;34.53;21.77;;;;;;;0.51;83.06;99288.72;103275;1105;72703;-70
2021/01/26 06:17:24;;;;;;;29.60;19.03;;;;;;;0.51;83.16;99289.56;103244;1106;85581;-73
2021/01/26 06:19:33;;;;;;;28.30;18.60;;;;;;;0.50;82.97;99290.53;103285;1106;78646;-70
2021/01/26 06:21:50;;;;;;;25.73;15.83;;;;;;;0.46;83.00;99302.47;103290;1106;64802;-68
2021/01/26 06:23:57;;;;;;;24.90;16.30;;;;;;;0.41;83.08;99307.37;103343;1105;82398;-68
2021/01/26 06:26:07;;;;;;;23.03;14.40;;;;;;;0.41;83.16;99294.09;103300;1105;71421;-68
2021/01/26 06:28:41;;;;;;;20.93;12.87;;;;;;;0.44;82.91;99303.61;103335;1105;85592;-70
2021/01/26 06:30:59;;;;;;;21.82;13.83;;;;;;;0.46;83.25;99305.13;103270;1105;78228;-69
2021/01/26 06:33:54;;;;;;;19.93;12.90;;;;;;;0.44;82.92;99301.77;103338;1105;64834;-70
2021/01/26 06:36:25;;;;;;;22.60;14.40;;;;;;;0.46;82.88;99307.79;103276;1105;82681;-75
2021/01/26 06:38:59;;;;;;;20.80;13.80;;;;;;;0.47;83.05;99305.94;103298;1105;71781;-75
2021/01/26 06:41:33;;;;;;;20.25;12.47;;;;;;;0.46;82.98;99314.91;103319;1105;84996;-75
2021/01/26 06:44:04;;;;;;;19.25;11.68;;;;;;;0.43;82.73;99316.05;103307;1105;78809;-69
2021/01/26 06:46:24;;;;;;;24.53;14.67;;;;;;;0.41;82.71;99328.63;103344;1103;64918;-69
2021/01/26 06:48:53;;;;;;;17.87;11.17;;;;;;;0.45;82.85;99322.05;103300;1105;83157;-69
2021/01/26 06:51:39;;;;;;;18.63;12.10;;;;;;;0.47;82.76;99330.69;103270;1105;71418;-68
2021/01/26 06:53:56;;;;;;;22.87;12.53;;;;;;;0.44;82.67;99325.67;103273;1105;84561;-73
2021/01/26 06:56:27;;;;;;;19.40;11.30;;;;;;;0.48;82.56;99321.75;103284;1105;78654;-74
2021/01/26 06:59:13;;;;;;;20.00;12.13;;;;;;;0.48;82.45;99323.56;103270;1105;64917;-72
2021/01/26 07:01:47;;;;;;;20.53;12.10;;;;;;;0.45;82.50;99315.89;103237;1105;83963;-72
2021/01/26 07:04:30;;;;;;;;;;;;;;;0.44;82.28;99315.05;103315;1106;72391;-72
2021/01/26 07:07:06;;;;;;;21.27;10.70;;;;;;;0.45;82.17;99330.02;103300;1106;84371;-68
2021/01/26 07:09:28;;;;;;;28.50;15.97;;;;;;;0.40;82.22;99329.64;103082;1106;80364;-68
2021/01/26 07:12:05;;;;;;;23.17;12.73;;;;;;;0.45;82.30;99330.02;103274;1105;64905;-71
2021/01/26 07:14:23;;;;;;;23.93;14.60;;;;;;;0.39;82.38;99329.77;103272;1105;82062;-69
2021/01/26 07:16:46;;;;;;;22.43;13.30;;;;;;;0.44;82.52;99327.52;103300;1105;71854;-70
2021/01/26 07:19:37;;;;;;;27.37;15.07;;;;;;;0.40;82.34;99332.30;103411;1093;85411;-66
2021/01/26 07:22:42;;;;;;;22.40;14.37;;;;;;;0.43;82.47;99336.47;103333;1105;78895;-67
2021/01/26 07:24:57;;;;;;;18.10;11.80;;;;;;;0.44;82.28;99341.61;103303;1102;64920;-73
2021/01/26 07:27:59;;;;;;;27.53;14.53;;;;;;;0.46;82.13;99333.52;103362;1102;82478;-72
2021/01/26 07:30:18;;;;;;;21.83;12.87;;;;;;;0.47;82.25;99327.19;103145;1105;73545;-72
2021/01/26 07:32:33;;;;;;;27.40;15.85;;;;;;;0.49;82.40;99334.05;103319;1102;83914;-73
2021/01/26 07:34:56;;;;;;;24.67;14.13;;;;;;;0.54;82.42;99336.24;103268;1105;80405;-68
2021/01/26 07:37:09;;;;;;;26.20;14.23;;;;;;;0.54;82.21;99347.71;103302;1103;64783;-73
2021/01/26 07:39:22;;;;;;;;;;;;;;;0.55;82.06;99346.70;103302;1105;83454;-70
2021/01/26 07:41:37;;;;;;;19.10;10.90;;;;;;;0.53;81.90;99347.84;103310;1101;71843;-69
2021/01/26 07:44:00;;;;;;;22.70;12.75;;;;;;;0.55;82.04;99351.18;103263;1102;85343;-69
2021/01/26 07:46:16;;;;;;;22.05;12.70;;;;;;;0.54;82.06;99346.88;103250;1102;78312;-70
2021/01/26 07:48:32;;;;;;;21.77;13.13;;;;;;;0.56;81.86;99345.73;103295;1102;64777;-70
2021/01/26 07:50:45;;;;;;;25.53;13.87;;;;;;;0.54;82.10;99357.50;103271;1102;82410;-70
2021/01/26 07:52:57;;;;;;;23.60;13.57;;;;;;;0.65;82.00;99356.44;103324;1105;72781;-70
2021/01/26 07:55:19;;;;;;;21.90;12.93;;;;;;;0.66;82.00;99345.64;103322;1105;84740;-69
2021/01/26 07:57:38;;;;;;;25.67;13.27;;;;;;;0.63;81.62;99358.42;103199;1102;80323;-67
2021/01/26 07:59:53;;;;;;;22.23;13.00;;;;;;;0.62;81.85;99360.23;103297;1102;64952;-69
2021/01/26 08:02:01;;;;;;;23.27;13.30;;;;;;;0.57;81.80;99354.55;103304;1102;83814;-67
2021/01/26 08:04:10;;;;;;;23.93;13.50;;;;;;;0.52;82.11;99348.85;103314;1103;71363;-68
2021/01/26 08:06:48;;;;;;;26.40;15.10;;;;;;;0.58;81.71;99348.22;103352;1103;85883;-69
2021/01/26 08:08:58;;;;;;;25.53;15.03;;;;;;;0.56;81.52;99351.05;103289;1106;78982;-70
2021/01/26 08:11:20;;;;;;;25.00;14.23;;;;;;;0.56;81.71;99351.05;103460;1093;64876;-70
2021/01/26 08:13:31;;;;;;;25.13;14.40;;;;;;;0.55;81.66;99352.02;103279;1105;83379;-71
2021/01/26 08:15:42;;;;;;;29.43;16.17;;;;;;;0.59;81.67;99356.06;103330;1102;71596;-69
2021/01/26 08:17:48;;;;;;;29.67;16.37;;;;;;;0.64;81.93;99341.47;103286;1102;86248;-70
2021/01/26 08:20:06;;;;;;;28.70;15.53;;;;;;;0.66;82.01;99355.45;103287;1102;77781;-70
2021/01/26 08:22:34;;;;;;;28.93;13.70;;;;;;;0.69;81.95;99355.16;103277;1102;64834;-70
2021/01/26 08:24:41;;;;;;;24.73;14.93;;;;;;;0.75;81.81;99354.52;103298;1103;83791;-70
2021/01/26 08:26:52;;;;;;;24.97;13.43;;;;;;;0.83;81.83;99357.25;103316;1102;72167;-70
2021/01/26 08:28:59;;;;;;;28.10;13.93;;;;;;;0.76;81.84;99359.70;103296;1105;85243;-70
2021/01/26 08:31:29;;;;;;;27.00;16.40;;;;;;;0.79;81.42;99366.53;103277;1106;79535;-68
2021/01/26 08:33:38;;;;;;;27.60;13.10;;;;;;;0.82;81.49;99361.76;103316;1102;64785;-70
2021/01/26 08:36:27;;;;;;;23.77;13.20;;;;;;;0.81;81.63;99360.08;103341;1102;83961;-70
2021/01/26 08:38:52;;;;;;;24.37;13.43;;;;;;;0.87;81.64;99366.61;103133;1102;71626;-70
2021/01/26 08:41:07;;;;;;;20.97;13.50;;;;;;;0.93;81.61;99369.50;103377;1102;85368;-71
2021/01/26 08:43:45;;;;;;;24.67;14.33;;;;;;;0.97;81.57;99367.34;103290;1102;79906;-69
2021/01/26 08:45:57;;;;;;;27.47;14.77;;;;;;;1.00;81.27;99356.41;103310;1102;64841;-70
2021/01/26 08:48:05;;;;;;;24.63;12.57;;;;;;;1.10;81.42;99354.48;103306;1102;82745;-70
2021/01/26 08:50:20;;;;;;;22.70;12.80;;;;;;;1.10;81.32;99355.31;103311;1105;72756;-68
2021/01/26 08:52:32;;;;;;;23.27;12.40;;;;;;;1.11;81.44;99354.34;103338;1102;85610;-68
2021/01/26 08:54:46;;;;;;;22.20;12.90;;;;;;;1.16;80.97;99359.19;103308;1102;78404;-70
2021/01/26 08:56:54;;;;;;;24.98;13.20;;;;;;;1.25;81.27;99360.08;103303;1102;64869;-70
2021/01/26 08:59:01;;;;;;;21.37;11.57;;;;;;;1.25;80.79;99370.72;103316;1102;84406;-70
2021/01/26 09:01:10;;;;;;;20.13;11.63;;;;;;;1.30;81.17;99366.61;103313;1102;71042;-71
2021/01/26 09:03:43;;;;;;;19.30;10.47;;;;;;;1.28;80.56;99363.27;103300;1102;84572;-70
2021/01/26 09:06:15;;;;;;;21.13;12.67;;;;;;;1.25;80.65;99362.73;103330;1102;77465;-70
2021/01/26 09:08:55;;;;;;;23.57;11.90;;;;;;;1.32;80.97;99353.97;103286;1103;64969;-70
2021/01/26 09:11:05;;;;;;;22.00;13.10;;;;;;;1.46;80.54;99361.38;103317;1102;83644;-71
2021/01/26 09:13:18;;;;;;;18.33;10.90;;;;;;;1.57;81.07;99360.28;103326;1102;72324;-70
2021/01/26 09:15:27;;;;;;;19.45;11.33;;;;;;;1.69;80.48;99362.53;103321;1102;85015;-66
2021/01/26 09:17:36;;;;;;;18.10;10.77;;;;;;;1.70;80.24;99361.52;103297;1102;78994;-65
2021/01/26 09:19:49;;;;;;;18.57;10.63;;;;;;;1.70;80.27;99369.50;103277;1102;64764;-70
2021/01/26 09:22:06;;;;;;;25.70;12.23;;;;;;;1.66;80.25;99372.66;103332;1102;82829;-70
2021/01/26 09:24:25;;;;;;;22.75;11.95;;;;;;;1.78;80.36;99371.40;103336;1102;71343;-70
2021/01/26 09:26:32;;;;;;;18.47;10.53;;;;;;;1.72;79.88;99359.56;103296;1102;85425;-66
2021/01/26 09:28:43;;;;;;;20.90;11.40;;;;;;;1.75;79.85;99366.39;103308;1102;79264;-67
2021/01/26 09:30:58;;;;;;;20.47;11.67;;;;;;;1.81;79.98;99364.92;103331;1102;64840;-70
2021/01/26 09:33:21;;;;;;;20.25;11.20;;;;;;;1.80;79.95;99369.41;103281;1102;81940;-70
2021/01/26 09:35:34;;;;;;;20.23;12.50;;;;;;;1.78;80.07;99372.24;103382;1102;71454;-66
2021/01/26 09:37:43;;;;;;;21.12;11.90;;;;;;;1.78;79.52;99372.24;103447;1100;85333;-70
2021/01/26 09:39:50;;;;;;;19.97;10.97;;;;;;;1.79;79.90;99378.38;103294;1103;78816;-69
2021/01/26 09:41:56;;;;;;;17.97;11.10;;;;;;;1.79;79.49;99379.22;103315;1105;64962;-71
2021/01/26 09:44:07;;;;;;;22.90;12.33;;;;;;;1.76;79.77;99374.20;103413;1093;83906;-71
2021/01/26 09:46:27;;;;;;;20.17;11.67;;;;;;;1.78;79.39;99371.40;103295;1105;70968;-70
2021/01/26 09:48:43;;;;;;;19.83;10.70;;;;;;;1.82;79.77;99379.88;103305;1104;84661;-64
2021/01/26 09:50:49;;;;;;;20.70;11.97;;;;;;;1.89;79.77;99368.45;103298;1105;78484;-63
2021/01/26 09:52:59;;;;;;;20.23;11.37;;;;;;;1.94;79.34;99384.79;103315;1105;64831;-63
2021/01/26 09:55:15;;;;;;;18.77;10.67;;;;;;;1.92;78.56;99377.95;103304;1105;81662;-63
2021/01/26 09:57:21;;;;;;;20.93;12.13;;;;;;;1.86;79.47;99386.58;103321;1106;72577;-63
2021/01/26 09:59:31;;;;;;;22.40;11.17;;;;;;;1.85;79.24;99383.07;103276;1106;85344;-64
2021/01/26 10:01:40;;;;;;;20.63;11.80;;;;;;;1.85;79.39;99382.23;103258;1105;78307;-65
2021/01/26 10:03:46;;;;;;;22.93;11.47;;;;;;;1.86;79.42;99395.41;103276;1105;64876;-67
2021/01/26 10:05:59;;;;;;;21.73;12.97;;;;;;;1.96;78.97;99390.78;103292;1105;83113;-65
2021/01/26 10:08:13;;;;;;;19.95;11.60;;;;;;;1.86;78.62;99397.22;103324;1105;74139;-71
2021/01/26 10:10:24;;;;;;;17.32;10.03;;;;;;;1.89;78.93;99410.23;103288;1105;85730;-74
2021/01/26 10:12:40;;;;;;;15.73;9.37;;;;;;;1.90;78.68;99401.22;103310;1105;79185;-72
2021/01/26 10:15:33;;;;;;;18.67;11.23;;;;;;;1.90;78.85;99399.41;103448;1100;65013;-72
2021/01/26 10:17:50;;;;;;;17.87;10.07;;;;;;;2.00;78.97;99407.28;103301;1105;82441;-63
2021/01/26 10:20:00;;;;;;;20.47;11.40;;;;;;;2.10;79.09;99400.00;103364;1105;71308;-70
2021/01/26 10:22:12;;;;;;;17.33;10.53;;;;;;;2.18;78.89;99389.38;103304;1106;85598;-72
2021/01/26 10:24:32;;;;;;;15.87;8.70;;;;;;;2.20;78.63;99406.02;103241;1106;77224;-74